Glen Morgan, West Virginia
Current Conditions -  °F | °C
As of 6:10 PM on Saturday 20 Dec 2014 (Local Time) from KBKW Reporting Station
Overcast Overcast  
Wind Chill: 33°   Ceiling: 1500
Heat Index: 33°   Visibility: 10mi
Dew Point: 26°   Wind: 0mph
Humidity: 75%   Direction: NA
Pressure: 30.16"   Gusts: NA
Location:  37.76°N, 81.16°W
Report Text: KBKW 202310Z AUTO 00000KT 10SM OVC015 01/M03 A3016 RMK AO2 T00061033
Loading
Personal Weather Stations






























Interactive Weather Map New forecast layout! Learn more

10-Day Weather Forecast

Advertisements
Track Severe Weather on mobile